Scarborough, United Kingdom
Current Conditions -  °F | °C
As of 1:50 PM on Monday 22 Dec 2014 (Local Time) from EGXV Reporting Station
Broken Clouds Broken Clouds  
Wind Chill: 57°   Ceiling: 2500
Heat Index: 57°   Visibility: 6mi
Dew Point: 48°   Wind: 20mph
Humidity: 72%   Direction: 250°WSW
Pressure: 29.71"   Gusts: NA
Location:  54.28°N, 0.4°W
Report Text: EGXV 221350Z AUTO 25017KT 9999 BKN025/// BKN031/// 14/09 Q1006
Loading
Personal Weather Stations






























Interactive Weather Map New forecast layout! Learn more

10-Day Weather Forecast

Advertisements
Track Severe Weather on mobile